NORTHEAST SUFFOLK  -  Winter Weather Advisory Winter Weather Advisory        NORTHERN NASSAU  -  Winter Weather Advisory Winter Weather Advisory        NORTHWEST SUFFOLK  -  Winter Weather Advisory Winter Weather Advisory        SOUTHEAST SUFFOLK  -  Winter Weather Advisory Winter Weather Advisory        SOUTHERN NASSAU  -  Winter Weather Advisory Winter Weather Advisory        SOUTHWEST SUFFOLK  -  Winter Weather Advisory Winter Weather Advisory      

Active alerts

Northern Nassau
  Details for Northern Nassau Winter Weather Advisory
Southern Nassau
  Details for Southern Nassau Winter Weather Advisory
Northwest Suffolk
  Details for Northwest Suffolk Winter Weather Advisory
Southwest Suffolk
  Details for Southwest Suffolk Winter Weather Advisory
Northeast Suffolk
  Details for Northeast Suffolk Winter Weather Advisory
Southeast Suffolk
  Details for Southeast Suffolk Winter Weather Advisory


WXM80 ListenWXM80 Stop

You find our weather info also at:

UK Metoffice

WeatherCloud

Weather Underground

Northeastern Weather Network

AWEKAS

Citizen Weather Observer Program (CWOP)

HAMweather, WeatherForYou, PWS Weather


Weather Underground History page Text

Daily Summary for November 12, 2016 Units:  English    Metric   Both
« Previous Day
Next Day »
Daily Weekly Monthly Yearly Custom
  High: Low: Average:
Temperature: 48.8 °F 37.5 °F 42.8 °F
Dew Point: 31.4 °F 24.6 °F 27.4 °F
Humidity: 64 % 42 % 55 %
Wind Speed: 9.2 mph 0.0 mph 3.4 mph
Wind Gust: 19.6 mph - -
Wind:- - WSW
Pressure: 30.30 in 30.12 in -
Precipitation: 0.00 in    
Historical Graphs
 
 
Tabular Data for November 12, 2016
Time Temperature Dew Point Pressure Wind Wind Speed Wind Gust Humidity Rainfall Rate (Hourly)
00:00 41.4 °F 26.4 °F 30.12 in North 3.5 mph 9.2 mph 55 % 0.00 in
00:05 41.4 °F 26.4 °F 30.12 in North 6.8 mph 12.7 mph 55 % 0.00 in
00:10 41.4 °F 26.4 °F 30.12 in North 5.6 mph 11.5 mph 55 % 0.00 in
00:15 41.3 °F 26.3 °F 30.12 in NNE 7.1 mph 16.1 mph 55 % 0.00 in
00:20 41.3 °F 26.8 °F 30.13 in North 6.0 mph 12.0 mph 56 % 0.00 in
00:25 41.2 °F 24.9 °F 30.12 in North 6.0 mph 16.0 mph 52 % 0.00 in
00:30 41.1 °F 25.3 °F 30.12 in North 3.0 mph 13.0 mph 53 % 0.00 in
00:35 41.0 °F 25.6 °F 30.12 in North 6.0 mph 12.0 mph 54 % 0.00 in
00:40 40.9 °F 25.5 °F 30.12 in NNW 5.0 mph 12.0 mph 54 % 0.00 in
00:45 40.9 °F 25.1 °F 30.13 in NNW 8.0 mph 14.0 mph 53 % 0.00 in
00:50 40.9 °F 25.0 °F 30.13 in NNW 7.0 mph 16.0 mph 53 % 0.00 in
00:55 40.8 °F 25.4 °F 30.13 in North 3.0 mph 14.0 mph 54 % 0.00 in
01:00 40.7 °F 24.9 °F 30.14 in NNW 6.0 mph 18.4 mph 53 % 0.00 in
01:05 40.7 °F 24.9 °F 30.13 in North 6.7 mph 15.0 mph 53 % 0.00 in
01:10 40.6 °F 24.8 °F 30.14 in North 4.5 mph 10.4 mph 53 % 0.00 in
01:15 40.6 °F 25.7 °F 30.14 in NNW 2.4 mph 7.0 mph 55 % 0.00 in
01:20 40.5 °F 25.6 °F 30.15 in NNE 4.6 mph 8.1 mph 55 % 0.00 in
01:26 40.3 °F 25.0 °F 30.14 in NNW 5.1 mph 8.1 mph 54 % 0.00 in
01:31 40.3 °F 25.0 °F 30.15 in North 2.9 mph 8.1 mph 54 % 0.00 in
01:36 40.2 °F 24.9 °F 30.15 in North 4.4 mph 9.0 mph 54 % 0.00 in
01:41 40.1 °F 24.8 °F 30.15 in NNW 6.2 mph 13.8 mph 54 % 0.00 in
01:46 40.1 °F 25.6 °F 30.16 in North 3.3 mph 10.4 mph 56 % 0.00 in
01:51 40.1 °F 25.2 °F 30.16 in NE 5.9 mph 15.0 mph 55 % 0.00 in
01:56 40.1 °F 25.2 °F 30.16 in NW 4.3 mph 6.9 mph 55 % 0.00 in
02:01 40.0 °F 25.6 °F 30.17 in North 5.0 mph 16.1 mph 56 % 0.00 in
02:06 40.0 °F 25.6 °F 30.16 in WNW 4.2 mph 11.5 mph 56 % 0.00 in
02:11 39.9 °F 25.5 °F 30.16 in NNW 1.8 mph 3.5 mph 56 % 0.00 in
02:17 39.9 °F 25.5 °F 30.17 in NNE 6.8 mph 16.1 mph 56 % 0.00 in
02:22 39.8 °F 25.4 °F 30.17 in North 6.9 mph 13.0 mph 56 % 0.00 in
02:27 39.8 °F 25.4 °F 30.17 in North 7.2 mph 11.0 mph 56 % 0.00 in
02:32 39.7 °F 25.7 °F 30.17 in North 7.2 mph 19.6 mph 57 % 0.00 in
02:37 39.7 °F 24.8 °F 30.17 in NNW 7.2 mph 16.1 mph 55 % 0.00 in
02:42 39.6 °F 26.0 °F 30.17 in NNW 3.9 mph 9.2 mph 58 % 0.00 in
02:47 39.6 °F 25.6 °F 30.17 in NE 9.2 mph 15.0 mph 57 % 0.00 in
02:52 39.6 °F 26.4 °F 30.17 in NW 4.2 mph 9.2 mph 59 % 0.00 in
02:57 39.5 °F 26.3 °F 30.17 in NNE 8.0 mph 9.2 mph 59 % 0.00 in
03:02 39.5 °F 25.9 °F 30.18 in NNE 7.0 mph 11.5 mph 58 % 0.00 in
03:07 39.4 °F 25.4 °F 30.18 in NNE 5.4 mph 9.2 mph 57 % 0.00 in
03:13 39.3 °F 25.3 °F 30.18 in North 5.5 mph 9.2 mph 57 % 0.00 in
03:18 39.2 °F 25.6 °F 30.18 in North 4.7 mph 6.9 mph 58 % 0.00 in
03:23 39.2 °F 25.6 °F 30.18 in NNE 6.6 mph 10.4 mph 58 % 0.00 in
03:28 39.1 °F 25.6 °F 30.18 in North 3.7 mph 7.0 mph 58 % 0.00 in
03:33 39.0 °F 26.3 °F 30.18 in North 6.5 mph 12.7 mph 60 % 0.00 in
03:43 39.0 °F 25.9 °F 30.18 in North 6.6 mph 11.5 mph 59 % 0.00 in
03:48 38.9 °F 25.8 °F 30.18 in NNW 8.2 mph 11.5 mph 59 % 0.00 in
03:53 39.0 °F 26.3 °F 30.18 in North 5.0 mph 10.4 mph 60 % 0.00 in
03:58 38.9 °F 25.8 °F 30.19 in NW 5.1 mph 11.5 mph 59 % 0.00 in
04:03 38.8 °F 25.7 °F 30.19 in NW 4.2 mph 10.0 mph 59 % 0.00 in
04:09 38.8 °F 25.7 °F 30.20 in North 4.1 mph 7.0 mph 59 % 0.00 in
04:14 38.7 °F 25.6 °F 30.20 in North 5.4 mph 11.5 mph 59 % 0.00 in
04:24 38.7 °F 25.6 °F 30.20 in NNW 3.3 mph 6.0 mph 59 % 0.00 in
04:29 38.7 °F 24.8 °F 30.20 in NNW 6.0 mph 11.5 mph 57 % 0.00 in
04:34 38.6 °F 25.5 °F 30.20 in North 6.3 mph 9.2 mph 59 % 0.00 in
04:39 38.6 °F 25.9 °F 30.21 in NNW 6.1 mph 10.4 mph 60 % 0.00 in
04:44 38.5 °F 25.4 °F 30.22 in NNE 2.4 mph 8.1 mph 59 % 0.00 in
04:49 38.4 °F 24.9 °F 30.22 in North 1.6 mph 3.5 mph 58 % 0.00 in
04:54 38.4 °F 25.7 °F 30.22 in NW 4.7 mph 10.4 mph 60 % 0.00 in
04:59 38.3 °F 25.6 °F 30.22 in North 4.1 mph 11.5 mph 60 % 0.00 in
05:05 38.2 °F 25.5 °F 30.22 in NNW 5.4 mph 10.4 mph 60 % 0.00 in
05:10 38.2 °F 25.5 °F 30.22 in North 3.0 mph 7.0 mph 60 % 0.00 in
05:15 38.1 °F 25.4 °F 30.22 in NW 1.8 mph 5.8 mph 60 % 0.00 in
05:20 38.1 °F 25.4 °F 30.22 in North 3.5 mph 10.4 mph 60 % 0.00 in
05:25 38.0 °F 25.7 °F 30.23 in North 5.5 mph 8.1 mph 61 % 0.00 in
05:30 37.9 °F 25.2 °F 30.23 in NNE 4.8 mph 9.2 mph 60 % 0.00 in
05:35 37.9 °F 25.2 °F 30.24 in NW 3.0 mph 6.0 mph 60 % 0.00 in
05:40 37.8 °F 25.6 °F 30.24 in NNW 2.0 mph 10.0 mph 61 % 0.00 in
05:45 37.8 °F 25.1 °F 30.24 in NW 2.0 mph 8.0 mph 60 % 0.00 in
05:50 37.8 °F 25.5 °F 30.24 in NNW 5.0 mph 8.0 mph 61 % 0.00 in
05:55 37.7 °F 24.6 °F 30.24 in NNW 5.0 mph 15.0 mph 59 % 0.00 in
06:00 37.7 °F 24.6 °F 30.24 in NNW 4.9 mph 9.2 mph 59 % 0.00 in
06:05 37.7 °F 25.1 °F 30.25 in North 4.5 mph 11.5 mph 60 % 0.00 in
06:10 37.7 °F 25.1 °F 30.25 in NNE 6.6 mph 11.5 mph 60 % 0.00 in
06:15 37.8 °F 25.1 °F 30.25 in NNW 3.6 mph 7.0 mph 60 % 0.00 in
06:21 37.8 °F 25.1 °F 30.25 in NNW 3.8 mph 8.1 mph 60 % 0.00 in
06:26 37.8 °F 24.7 °F 30.25 in NNE 4.0 mph 5.8 mph 59 % 0.00 in
06:31 37.8 °F 25.5 °F 30.26 in NW 3.8 mph 8.1 mph 61 % 0.00 in
06:36 37.7 °F 25.5 °F 30.25 in North 4.4 mph 8.1 mph 61 % 0.00 in
06:41 37.7 °F 25.8 °F 30.26 in North 1.9 mph 6.0 mph 62 % 0.00 in
06:46 37.6 °F 25.4 °F 30.26 in NW 3.1 mph 9.2 mph 61 % 0.00 in
06:51 37.6 °F 25.7 °F 30.26 in NNW 3.4 mph 8.1 mph 62 % 0.00 in
06:56 37.5 °F 24.9 °F 30.27 in North 4.5 mph 13.8 mph 60 % 0.00 in
07:01 37.5 °F 25.3 °F 30.28 in North 4.1 mph 8.1 mph 61 % 0.00 in
07:07 37.6 °F 25.4 °F 30.27 in NNW 4.5 mph 11.0 mph 61 % 0.00 in
07:12 37.6 °F 25.0 °F 30.27 in North 6.0 mph 11.5 mph 60 % 0.00 in
07:17 37.7 °F 25.5 °F 30.28 in North 4.7 mph 8.1 mph 61 % 0.00 in
07:22 37.7 °F 25.1 °F 30.28 in NNE 8.1 mph 11.0 mph 60 % 0.00 in
07:27 37.8 °F 25.9 °F 30.28 in NNW 3.6 mph 10.4 mph 62 % 0.00 in
07:32 37.9 °F 25.6 °F 30.27 in NNW 3.3 mph 10.4 mph 61 % 0.00 in
07:37 38.0 °F 26.1 °F 30.27 in NW 3.1 mph 6.9 mph 62 % 0.00 in
07:42 38.1 °F 26.2 °F 30.28 in NNW 4.6 mph 11.5 mph 62 % 0.00 in
07:47 38.1 °F 25.8 °F 30.28 in NNW 5.2 mph 10.4 mph 61 % 0.00 in
07:52 38.2 °F 25.9 °F 30.28 in North 3.4 mph 10.0 mph 61 % 0.00 in
07:58 38.2 °F 25.9 °F 30.28 in North 3.9 mph 8.1 mph 61 % 0.00 in
08:03 38.4 °F 25.7 °F 30.28 in North 5.0 mph 9.2 mph 60 % 0.00 in
08:08 38.4 °F 25.7 °F 30.28 in NW 4.8 mph 11.5 mph 60 % 0.00 in
08:13 38.5 °F 25.8 °F 30.28 in WNW 4.6 mph 9.2 mph 60 % 0.00 in
08:18 38.7 °F 25.6 °F 30.28 in NW 5.2 mph 8.1 mph 59 % 0.00 in
08:23 38.8 °F 25.7 °F 30.28 in NNE 7.1 mph 15.0 mph 59 % 0.00 in
08:28 38.9 °F 25.8 °F 30.28 in NNW 2.8 mph 6.0 mph 59 % 0.00 in
08:33 39.1 °F 26.4 °F 30.28 in WNW 1.7 mph 5.8 mph 60 % 0.00 in
08:38 39.4 °F 26.7 °F 30.28 in NNW 4.1 mph 10.4 mph 60 % 0.00 in
08:43 39.9 °F 26.7 °F 30.29 in NNW 4.4 mph 11.5 mph 59 % 0.00 in
08:49 40.3 °F 26.3 °F 30.28 in NNW 5.8 mph 9.2 mph 57 % 0.00 in
08:54 40.7 °F 26.6 °F 30.28 in NNW 4.2 mph 11.5 mph 57 % 0.00 in
08:59 41.1 °F 27.0 °F 30.28 in NNW 1.7 mph 6.9 mph 57 % 0.00 in
09:04 41.8 °F 27.7 °F 30.28 in NNE 7.2 mph 10.0 mph 57 % 0.00 in
09:09 42.2 °F 28.0 °F 30.28 in NNE 3.1 mph 8.1 mph 57 % 0.00 in
09:14 42.5 °F 27.5 °F 30.28 in NNW 4.8 mph 5.8 mph 55 % 0.00 in
09:19 42.9 °F 28.3 °F 30.28 in NW 2.9 mph 9.2 mph 56 % 0.00 in
09:24 43.4 °F 28.3 °F 30.28 in NNW 3.2 mph 5.8 mph 55 % 0.00 in
09:29 43.8 °F 27.3 °F 30.29 in NNE 5.7 mph 10.4 mph 52 % 0.00 in
09:34 44.2 °F 28.6 °F 30.29 in North 2.3 mph 3.5 mph 54 % 0.00 in
09:40 44.8 °F 28.2 °F 30.29 in NNW 2.7 mph 5.8 mph 52 % 0.00 in
09:45 45.0 °F 27.5 °F 30.30 in North 7.5 mph 12.7 mph 50 % 0.00 in
09:50 45.4 °F 28.8 °F 30.30 in NNE 2.0 mph 5.8 mph 52 % 0.00 in
09:55 45.7 °F 28.6 °F 30.30 in NW 2.3 mph 5.8 mph 51 % 0.00 in
10:00 46.1 °F 29.0 °F 30.30 in NNW 3.1 mph 4.0 mph 51 % 0.00 in
10:05 46.4 °F 29.3 °F 30.29 in NW 3.0 mph 8.0 mph 51 % 0.00 in
10:10 46.8 °F 29.6 °F 30.28 in NW 1.0 mph 5.0 mph 51 % 0.00 in
10:15 47.0 °F 28.8 °F 30.29 in NW 2.5 mph 3.5 mph 49 % 0.00 in
10:20 47.0 °F 27.8 °F 30.29 in WNW 5.0 mph 8.0 mph 47 % 0.00 in
10:25 47.0 °F 28.3 °F 30.28 in NW 3.0 mph 8.0 mph 48 % 0.00 in
10:30 46.9 °F 28.2 °F 30.28 in WNW 0.4 mph 3.5 mph 48 % 0.00 in
10:35 46.8 °F 28.1 °F 30.29 in NW 1.0 mph 7.0 mph 48 % 0.00 in
10:40 46.8 °F 27.6 °F 30.29 in WNW 3.0 mph 8.0 mph 47 % 0.00 in
10:45 46.7 °F 27.0 °F 30.28 in West 3.0 mph 8.0 mph 46 % 0.00 in
10:50 46.6 °F 28.4 °F 30.28 in WNW 1.0 mph 4.0 mph 49 % 0.00 in
10:55 46.4 °F 27.8 °F 30.28 in NNW 2.0 mph 7.0 mph 48 % 0.00 in
11:00 46.1 °F 27.0 °F 30.28 in WNW 4.5 mph 5.0 mph 47 % 0.00 in
11:05 46.0 °F 26.4 °F 30.28 in West 2.0 mph 10.0 mph 46 % 0.00 in
11:10 45.8 °F 26.7 °F 30.28 in WNW 2.0 mph 10.0 mph 47 % 0.00 in
11:15 45.4 °F 26.3 °F 30.29 in WNW 5.0 mph 8.0 mph 47 % 0.00 in
11:20 45.1 °F 26.1 °F 30.28 in West 5.0 mph 8.0 mph 47 % 0.00 in
11:25 44.8 °F 25.8 °F 30.28 in West 5.0 mph 9.0 mph 47 % 0.00 in
11:30 44.6 °F 26.1 °F 30.28 in West 7.0 mph 12.0 mph 48 % 0.00 in
11:35 44.4 °F 26.4 °F 30.28 in West 3.0 mph 9.0 mph 49 % 0.00 in
11:40 44.3 °F 26.3 °F 30.28 in West 5.0 mph 9.0 mph 49 % 0.00 in
11:45 44.3 °F 26.8 °F 30.27 in West 5.0 mph 8.0 mph 50 % 0.00 in
11:50 44.3 °F 26.8 °F 30.27 in West 3.0 mph 7.0 mph 50 % 0.00 in
11:55 44.5 °F 27.0 °F 30.27 in West 3.0 mph 10.0 mph 50 % 0.00 in
12:00 44.7 °F 27.2 °F 30.26 in NNW 2.6 mph 6.9 mph 50 % 0.00 in
12:05 44.9 °F 27.4 °F 30.26 in NW 2.0 mph 12.0 mph 50 % 0.00 in
12:15 45.1 °F 27.1 °F 30.25 in NW 3.2 mph 3.5 mph 49 % 0.00 in
12:20 45.3 °F 27.2 °F 30.25 in West 7.0 mph 12.0 mph 49 % 0.00 in
12:25 45.4 °F 26.8 °F 30.25 in WNW 3.7 mph 8.0 mph 48 % 0.00 in
12:30 45.6 °F 27.5 °F 30.25 in WNW 1.4 mph 6.9 mph 49 % 0.00 in
12:35 45.7 °F 26.6 °F 30.24 in WSW 4.3 mph 8.1 mph 47 % 0.00 in
12:40 45.8 °F 26.7 °F 30.24 in WNW 5.7 mph 9.0 mph 47 % 0.00 in
12:46 46.0 °F 27.4 °F 30.24 in West 3.6 mph 8.1 mph 48 % 0.00 in
12:51 46.2 °F 27.6 °F 30.24 in West 4.6 mph 6.0 mph 48 % 0.00 in
12:56 46.4 °F 27.2 °F 30.23 in West 4.3 mph 6.9 mph 47 % 0.00 in
13:01 46.6 °F 26.9 °F 30.23 in WNW 1.7 mph 8.1 mph 46 % 0.00 in
13:06 46.9 °F 27.2 °F 30.23 in West 1.7 mph 6.9 mph 46 % 0.00 in
13:11 47.2 °F 28.0 °F 30.23 in WSW 4.5 mph 5.8 mph 47 % 0.00 in
13:16 47.6 °F 27.8 °F 30.23 in NW 1.4 mph 10.4 mph 46 % 0.00 in
13:21 47.9 °F 28.1 °F 30.22 in SW 4.7 mph 6.9 mph 46 % 0.00 in
13:26 48.2 °F 27.8 °F 30.22 in West 1.8 mph 5.8 mph 45 % 0.00 in
13:31 48.5 °F 28.1 °F 30.22 in WNW 3.7 mph 6.9 mph 45 % 0.00 in
13:37 48.7 °F 27.2 °F 30.21 in WNW 4.3 mph 8.1 mph 43 % 0.00 in
13:42 48.8 °F 27.8 °F 30.21 in West 3.5 mph 6.9 mph 44 % 0.00 in
13:47 48.8 °F 26.7 °F 30.21 in West 6.4 mph 10.4 mph 42 % 0.00 in
13:52 48.7 °F 27.2 °F 30.21 in WSW 2.4 mph 5.0 mph 43 % 0.00 in
13:57 48.7 °F 26.6 °F 30.21 in WNW 2.0 mph 6.9 mph 42 % 0.00 in
14:02 48.6 °F 27.1 °F 30.21 in WNW 5.7 mph 8.1 mph 43 % 0.00 in
14:07 48.5 °F 26.4 °F 30.21 in WNW 6.6 mph 11.0 mph 42 % 0.00 in
14:12 48.3 °F 26.8 °F 30.20 in WNW 2.8 mph 8.1 mph 43 % 0.00 in
14:17 48.2 °F 26.7 °F 30.20 in West 1.0 mph 3.5 mph 43 % 0.00 in
14:22 48.2 °F 27.3 °F 30.20 in WSW 3.7 mph 8.1 mph 44 % 0.00 in
14:28 48.1 °F 26.6 °F 30.20 in WNW 2.3 mph 3.5 mph 43 % 0.00 in
14:33 48.1 °F 27.2 °F 30.20 in WNW 4.5 mph 8.1 mph 44 % 0.00 in
14:38 48.0 °F 26.5 °F 30.20 in WNW 5.1 mph 10.0 mph 43 % 0.00 in
14:43 47.9 °F 26.5 °F 30.20 in WSW 3.2 mph 6.9 mph 43 % 0.00 in
14:48 47.9 °F 28.1 °F 30.20 in SW 4.0 mph 9.2 mph 46 % 0.00 in
14:53 47.8 °F 27.5 °F 30.20 in SW 4.3 mph 8.1 mph 45 % 0.00 in
14:58 47.8 °F 28.0 °F 30.20 in West 5.4 mph 6.9 mph 46 % 0.00 in
15:03 47.8 °F 28.0 °F 30.20 in WNW 5.6 mph 6.9 mph 46 % 0.00 in
15:08 47.7 °F 27.9 °F 30.19 in SW 4.1 mph 6.9 mph 46 % 0.00 in
15:13 47.7 °F 27.9 °F 30.19 in WNW 2.9 mph 5.8 mph 46 % 0.00 in
15:18 47.6 °F 27.8 °F 30.19 in SW 2.2 mph 4.0 mph 46 % 0.00 in
15:23 47.6 °F 27.3 °F 30.19 in NW 3.2 mph 5.8 mph 45 % 0.00 in
15:28 47.6 °F 27.8 °F 30.18 in WNW 0.5 mph 2.3 mph 46 % 0.00 in
15:34 47.6 °F 27.3 °F 30.18 in WNW 2.4 mph 5.8 mph 45 % 0.00 in
15:39 47.5 °F 27.2 °F 30.18 in West 2.9 mph 5.8 mph 45 % 0.00 in
15:44 47.5 °F 27.2 °F 30.18 in West 1.5 mph 6.9 mph 45 % 0.00 in
15:49 47.4 °F 27.1 °F 30.18 in WSW 5.7 mph 5.8 mph 45 % 0.00 in
15:54 47.4 °F 27.6 °F 30.18 in West 3.3 mph 5.8 mph 46 % 0.00 in
15:59 47.3 °F 27.5 °F 30.18 in SW 3.5 mph 8.1 mph 46 % 0.00 in
16:04 47.3 °F 28.1 °F 30.18 in SW 3.1 mph 4.6 mph 47 % 0.00 in
16:09 47.3 °F 28.1 °F 30.17 in WSW 2.7 mph 3.5 mph 47 % 0.00 in
16:14 47.2 °F 28.5 °F 30.17 in West 1.3 mph 2.3 mph 48 % 0.00 in
16:19 47.2 °F 29.0 °F 30.17 in Calm     49 % 0.00 in
16:25 47.1 °F 28.9 °F 30.17 in Calm   2.3 mph 49 % 0.00 in
16:30 46.9 °F 28.2 °F 30.17 in NW 1.8 mph 4.0 mph 48 % 0.00 in
16:35 46.8 °F 28.1 °F 30.17 in WSW 2.9 mph 3.5 mph 48 % 0.00 in
16:40 46.6 °F 27.9 °F 30.17 in WSW 0.5 mph 3.5 mph 48 % 0.00 in
16:45 46.5 °F 28.4 °F 30.17 in Calm   3.0 mph 49 % 0.00 in
16:50 46.4 °F 28.8 °F 30.17 in Calm     50 % 0.00 in
16:55 46.3 °F 29.1 °F 30.17 in Calm     51 % 0.00 in
17:00 46.1 °F 29.4 °F 30.17 in Calm     52 % 0.00 in
17:05 45.8 °F 29.6 °F 30.17 in Calm     53 % 0.00 in
17:10 45.4 °F 29.3 °F 30.17 in Calm     53 % 0.00 in
17:15 45.0 °F 29.3 °F 30.17 in Calm   1.2 mph 54 % 0.00 in
17:21 44.7 °F 29.5 °F 30.17 in Calm     55 % 0.00 in
17:26 44.3 °F 29.6 °F 30.17 in Calm     56 % 0.00 in
17:31 43.9 °F 29.2 °F 30.17 in Calm     56 % 0.00 in
17:36 43.6 °F 29.4 °F 30.17 in Calm     57 % 0.00 in
17:41 43.2 °F 29.4 °F 30.17 in SW 0.3 mph 1.2 mph 58 % 0.00 in
17:46 42.8 °F 29.0 °F 30.17 in Calm     58 % 0.00 in
17:56 42.1 °F 28.8 °F 30.17 in SW 0.5 mph 1.2 mph 59 % 0.00 in
18:01 41.8 °F 28.9 °F 30.17 in SW 0.3 mph 1.2 mph 60 % 0.00 in
18:06 41.5 °F 28.6 °F 30.17 in SW 1.2 mph 2.3 mph 60 % 0.00 in
18:12 41.3 °F 28.4 °F 30.17 in SW 0.9 mph 2.3 mph 60 % 0.00 in
18:22 41.0 °F 28.2 °F 30.17 in SSW 0.5 mph 3.5 mph 60 % 0.00 in
18:27 40.9 °F 28.5 °F 30.17 in SSW 0.6 mph 2.3 mph 61 % 0.00 in
18:32 40.8 °F 28.8 °F 30.16 in SSW 0.4 mph 2.3 mph 62 % 0.00 in
18:37 40.7 °F 28.7 °F 30.17 in Calm     62 % 0.00 in
18:42 40.7 °F 28.7 °F 30.17 in Calm     62 % 0.00 in
18:47 40.7 °F 28.7 °F 30.17 in Calm     62 % 0.00 in
18:52 40.7 °F 28.7 °F 30.16 in WSW 0.9 mph 2.3 mph 62 % 0.00 in
18:57 40.9 °F 28.9 °F 30.16 in WSW 0.6 mph 2.3 mph 62 % 0.00 in
19:03 41.1 °F 29.1 °F 30.16 in SSW 0.8 mph 4.0 mph 62 % 0.00 in
19:08 41.4 °F 29.7 °F 30.17 in SW 0.4 mph 3.5 mph 63 % 0.00 in
19:13 41.6 °F 30.3 °F 30.16 in SW 0.8 mph 2.3 mph 64 % 0.00 in
19:18 41.9 °F 30.2 °F 30.16 in West 1.7 mph 3.5 mph 63 % 0.00 in
19:23 42.1 °F 30.4 °F 30.16 in SW 2.8 mph 3.5 mph 63 % 0.00 in
19:28 42.3 °F 30.6 °F 30.17 in WSW 1.0 mph 2.3 mph 63 % 0.00 in
19:33 42.5 °F 30.4 °F 30.16 in SW 0.4 mph 4.6 mph 62 % 0.00 in
19:38 42.7 °F 30.6 °F 30.16 in WSW 1.5 mph 3.5 mph 62 % 0.00 in
19:43 42.8 °F 30.7 °F 30.16 in WSW 1.7 mph 3.5 mph 62 % 0.00 in
19:48 43.0 °F 30.9 °F 30.16 in Calm   2.3 mph 62 % 0.00 in
19:53 43.1 °F 31.4 °F 30.15 in Calm     63 % 0.00 in
19:58 43.1 °F 31.0 °F 30.15 in WSW 2.6 mph 3.5 mph 62 % 0.00 in
20:04 43.1 °F 30.6 °F 30.15 in SW 1.0 mph 2.3 mph 61 % 0.00 in
20:09 43.0 °F 30.5 °F 30.14 in SW 2.0 mph 3.5 mph 61 % 0.00 in
20:14 42.9 °F 30.4 °F 30.15 in SW 1.8 mph 3.5 mph 61 % 0.00 in
20:19 42.8 °F 29.9 °F 30.15 in SW 0.9 mph 2.3 mph 60 % 0.00 in
20:24 42.7 °F 29.8 °F 30.15 in SW 2.1 mph 3.5 mph 60 % 0.00 in
20:29 42.6 °F 29.7 °F 30.15 in SW 2.4 mph 4.0 mph 60 % 0.00 in
20:34 42.4 °F 29.5 °F 30.16 in SW 1.9 mph 3.5 mph 60 % 0.00 in
20:39 42.3 °F 29.4 °F 30.16 in WSW 1.6 mph 3.5 mph 60 % 0.00 in
20:44 42.2 °F 29.3 °F 30.15 in SW 2.1 mph 3.5 mph 60 % 0.00 in
20:50 42.1 °F 29.2 °F 30.15 in SW 0.9 mph 2.3 mph 60 % 0.00 in
20:55 42.0 °F 29.5 °F 30.15 in SW 1.4 mph 2.3 mph 61 % 0.00 in
21:00 41.8 °F 29.7 °F 30.15 in WSW 1.1 mph 4.0 mph 62 % 0.00 in
21:05 41.7 °F 30.0 °F 30.14 in WSW 2.7 mph 8.1 mph 63 % 0.00 in
21:10 41.7 °F 29.6 °F 30.15 in West 1.7 mph 5.8 mph 62 % 0.00 in
21:15 42.0 °F 29.5 °F 30.14 in West 2.5 mph 10.4 mph 61 % 0.00 in
21:20 42.7 °F 29.4 °F 30.14 in WNW 4.0 mph 6.9 mph 59 % 0.00 in
21:25 43.4 °F 29.6 °F 30.14 in NW 4.4 mph 9.2 mph 58 % 0.00 in
21:30 44.2 °F 29.5 °F 30.14 in West 3.0 mph 10.0 mph 56 % 0.00 in
21:35 44.8 °F 30.1 °F 30.14 in West 5.0 mph 10.0 mph 56 % 0.00 in
21:40 45.3 °F 30.6 °F 30.14 in West 7.0 mph 14.0 mph 56 % 0.00 in
21:45 45.8 °F 30.1 °F 30.14 in WSW 6.0 mph 12.0 mph 54 % 0.00 in
21:50 46.0 °F 30.3 °F 30.14 in West 6.0 mph 10.0 mph 54 % 0.00 in
21:55 46.3 °F 31.0 °F 30.14 in WSW 2.9 mph 3.5 mph 55 % 0.00 in
22:00 46.3 °F 31.0 °F 30.14 in WSW 3.0 mph 4.0 mph 55 % 0.00 in
22:05 46.3 °F 31.0 °F 30.14 in WSW 2.8 mph 4.6 mph 55 % 0.00 in
22:10 46.3 °F 30.1 °F 30.14 in WSW 2.8 mph 7.0 mph 53 % 0.00 in
22:15 46.1 °F 29.9 °F 30.14 in SW 2.4 mph 3.5 mph 53 % 0.00 in
22:21 46.0 °F 29.8 °F 30.14 in SW 1.3 mph 3.5 mph 53 % 0.00 in
22:26 45.8 °F 29.6 °F 30.14 in WSW 2.1 mph 3.5 mph 53 % 0.00 in
22:31 45.5 °F 29.8 °F 30.14 in SSW 1.4 mph 3.5 mph 54 % 0.00 in
22:36 45.3 °F 29.6 °F 30.13 in WSW 2.3 mph 5.8 mph 54 % 0.00 in
22:41 45.0 °F 29.3 °F 30.13 in West 2.0 mph 5.0 mph 54 % 0.00 in
22:46 44.7 °F 29.1 °F 30.13 in WSW 2.2 mph 5.8 mph 54 % 0.00 in
22:51 44.5 °F 29.3 °F 30.13 in WSW 2.0 mph 8.1 mph 55 % 0.00 in
22:56 44.2 °F 29.0 °F 30.13 in SW 3.4 mph 6.9 mph 55 % 0.00 in
23:01 44.0 °F 29.3 °F 30.13 in SW 2.0 mph 3.5 mph 56 % 0.00 in
23:07 43.9 °F 29.2 °F 30.13 in SSW 2.7 mph 4.6 mph 56 % 0.00 in
23:12 43.7 °F 29.0 °F 30.13 in WSW 3.6 mph 5.8 mph 56 % 0.00 in
23:17 43.6 °F 29.4 °F 30.13 in West 3.7 mph 5.8 mph 57 % 0.00 in
23:22 43.6 °F 29.4 °F 30.13 in SW 4.1 mph 7.0 mph 57 % 0.00 in
23:27 43.6 °F 29.4 °F 30.13 in SW 2.2 mph 4.0 mph 57 % 0.00 in
23:32 43.6 °F 29.4 °F 30.13 in West 2.6 mph 3.5 mph 57 % 0.00 in
23:37 43.6 °F 29.4 °F 30.13 in SW 1.7 mph 3.5 mph 57 % 0.00 in
23:42 43.5 °F 29.3 °F 30.12 in SW 2.1 mph 3.5 mph 57 % 0.00 in
23:47 43.4 °F 29.6 °F 30.12 in WSW 2.3 mph 3.5 mph 58 % 0.00 in
23:52 43.3 °F 29.5 °F 30.12 in SW 3.5 mph 8.1 mph 58 % 0.00 in
23:57 43.2 °F 29.4 °F 30.13 in SW 1.7 mph 5.8 mph 58 % 0.00 in
Crab Meadow Weather
Compliments of Weather Underground - 3 mb

Script developed by  Jim McMurry - jmcmurry@mwt.net Adapted for the template by  Wim van der Kuil - Leuven-Template.eu

Astronomy: The Sun is around 4.5 billion years old.